首页
METAR-TAF:

METAR-TAF

机场 :

布達佩斯李斯特·費倫茨國際機場

布达佩斯, 匈牙利

纬度: 47-26N, 经度: 019-16E, 海拔: 151米

当前天气观测

该预报发布于17分钟前的14:00 UTC
风速6节,风向
温度 26°C
湿度 65%
气压 1018 hPa
能见度10公里或以上
少量云层高于4700英尺, 塔状积云.
散云层高于7000英尺
附近有阵雨

METAR: LHBP 191400Z 36006KT 9999 VCSH FEW047TCU SCT070 26/19 Q1018 NOSIG

时间: 16:17 (14:17 UTC)

预报

该预报发布于3小时和2分钟前的11:15 UTC
预报有效从19日的 12点(UTC)到 20日的 12点(UTC)
风速3节,风向多变
能见度10公里或以上
1500米以下无云,无积雨云
短暂存在
从 19日的 13点(UTC)到 20日的 09点(UTC)
风速10节,风向多变,有时为25节阵风
散云层高于4000英尺, 积雨云.
多云层高于8000英尺
雷暴, 雨
成为
从 20日的 06点(UTC)到 20日的 08点(UTC)
风速10节,风向北转东北

TAF: LHBP 191115Z 1912/2012 VRB03KT CAVOK TEMPO 1913/2009 VRB10G25KT TSRA SCT040CB BKN080 BECMG 2006/2008 03010KT

超过4000个机场的气象观测和天气预报(METAR&TAF报告)。

可查询的气象台以黄色和红色小点在地图上表示。

将鼠标移到小点上方,可查看气象台名称。

然后点击查看天气观测和预报。

如需切换地图:点击带黑十字的绿色按钮放大地图;点击带横线的绿色按钮缩小地图;或者点击绿色箭头查看邻近地区的地图。


METAR-TAF: